createdAt,value
2022-12-22T06:56:32.891Z,5.8
2022-12-22T07:02:52.787Z,5.8
2022-12-22T07:09:15.489Z,4.1
2022-12-22T07:15:35.593Z,4.1
2022-12-22T07:21:58.497Z,4.1
2022-12-22T07:28:20.862Z,4.1
2022-12-22T07:34:41.618Z,1.9
2022-12-22T07:41:05.125Z,1.9
2022-12-22T07:47:26.256Z,1.7
2022-12-22T07:53:44.548Z,1.7
2022-12-22T08:00:07.539Z,0.5
2022-12-22T08:06:27.636Z,0.5
2022-12-22T08:12:50.611Z,1.8
2022-12-22T08:19:10.595Z,1.8
2022-12-22T08:25:33.546Z,1.1
2022-12-22T08:31:53.575Z,1.1
2022-12-22T08:38:16.585Z,4.6
2022-12-22T08:44:36.483Z,4.6
2022-12-22T08:50:59.585Z,4.3
2022-12-22T08:57:19.542Z,4.3
2022-12-22T09:03:42.494Z,3.6
2022-12-22T09:10:02.557Z,3.6
2022-12-22T09:16:25.522Z,3.8
2022-12-22T09:22:45.562Z,3.8
2022-12-22T09:29:08.594Z,5.4
2022-12-22T09:35:28.499Z,5.4
2022-12-22T09:41:51.899Z,9.9
2022-12-22T09:48:11.989Z,9.9
2022-12-22T09:54:34.531Z,4.8
2022-12-22T10:00:54.528Z,4.8
2022-12-22T10:07:17.548Z,8.6
2022-12-22T10:13:37.526Z,8.6
2022-12-22T10:20:00.511Z,11
2022-12-22T10:26:29.485Z,11
2022-12-22T10:32:43.545Z,10.8
2022-12-22T10:39:03.528Z,10.8
2022-12-22T10:45:26.666Z,9.9
2022-12-22T10:51:38.364Z,9.9
2022-12-22T10:58:05.408Z,10.1
2022-12-22T11:04:21.550Z,10.1
2022-12-22T11:10:44.548Z,8.2
2022-12-22T11:17:04.642Z,8.2
2022-12-22T11:23:27.557Z,9.4
2022-12-22T11:29:47.528Z,9.4
2022-12-22T11:36:10.507Z,7.5
2022-12-22T11:42:30.537Z,7.5
2022-12-22T11:48:53.590Z,8
2022-12-22T11:55:13.503Z,8
2022-12-22T12:01:36.647Z,5.6
2022-12-22T12:07:56.549Z,5.6
2022-12-22T12:14:19.531Z,8.1
2022-12-22T12:31:03.137Z,6.7
2022-12-22T12:37:26.659Z,9.4
2022-12-22T12:43:44.512Z,9.4
2022-12-22T12:50:07.625Z,9.4
2022-12-22T12:56:27.515Z,9.4
2022-12-22T13:02:50.662Z,6.3
2022-12-22T13:09:40.214Z,6.3
2022-12-22T13:15:33.551Z,5.2
2022-12-22T13:21:54.991Z,5.2
2022-12-22T13:28:16.772Z,5.7
2022-12-22T13:34:46.244Z,5.7
2022-12-22T13:40:59.521Z,6.9
2022-12-22T13:47:19.614Z,6.9
2022-12-22T13:54:07.573Z,4.9
2022-12-22T14:00:02.822Z,4.9
2022-12-22T14:06:25.710Z,5.4
2022-12-22T14:12:45.547Z,5.4
2022-12-22T14:19:08.536Z,6.8
2022-12-22T14:25:28.651Z,6.8
2022-12-22T14:31:51.592Z,5.3
2022-12-22T14:38:11.627Z,5.3
2022-12-22T14:44:34.545Z,4.1
2022-12-22T14:50:54.511Z,4.1
2022-12-22T14:57:17.631Z,3.6
2022-12-22T15:03:37.724Z,3.6
2022-12-22T15:10:16.794Z,4
2022-12-22T15:16:20.782Z,4
2022-12-22T15:22:52.345Z,4.1
2022-12-22T15:29:12.543Z,4.1
2022-12-22T15:35:35.541Z,12.5
2022-12-22T15:41:55.632Z,12.5
2022-12-22T15:48:18.552Z,12.5
2022-12-22T15:54:38.583Z,12.5
2022-12-22T16:01:01.602Z,6.1
2022-12-22T16:07:21.597Z,6.1
2022-12-22T16:13:44.714Z,5.2
2022-12-22T16:20:05.095Z,5.2
2022-12-22T16:26:27.642Z,9.6
2022-12-22T16:32:47.564Z,9.6
2022-12-22T16:39:10.600Z,6.5
2022-12-22T16:46:27.222Z,6.5
2022-12-22T16:52:50.616Z,7.8
2022-12-22T16:59:10.573Z,7.8
2022-12-22T17:05:36.295Z,2.3
2022-12-22T17:11:53.566Z,2.3
2022-12-22T17:18:16.615Z,0.6
2022-12-22T17:24:36.583Z,0.6
2022-12-22T17:30:59.608Z,0.8
2022-12-22T17:37:19.597Z,0.8
2022-12-22T18:01:00.481Z,1.4
2022-12-22T18:07:23.814Z,1.4
2022-12-22T18:13:43.846Z,1.4
2022-12-22T18:20:06.582Z,0.8
2022-12-22T18:26:26.516Z,0.8
2022-12-22T18:32:49.545Z,0.5
2022-12-22T18:39:15.023Z,0.5
2022-12-22T18:45:32.553Z,2.9
2022-12-22T18:51:52.539Z,2.9
2022-12-22T18:58:15.552Z,3.1
2022-12-22T19:04:35.610Z,3.1
2022-12-22T19:10:58.540Z,1.5
2022-12-22T19:17:18.629Z,1.5
2022-12-22T19:23:41.510Z,1
2022-12-22T19:30:04.335Z,1
2022-12-22T19:36:24.548Z,2.3
2022-12-22T19:42:44.518Z,2.3
2022-12-22T19:49:07.598Z,2.9
2022-12-22T19:55:27.509Z,2.9
2022-12-22T20:01:50.611Z,1.2
2022-12-22T20:08:10.579Z,1.2
2022-12-22T20:14:33.516Z,2.4
2022-12-22T20:20:57.336Z,2.4
2022-12-22T20:27:16.495Z,3.8
2022-12-22T20:33:36.731Z,3.8
2022-12-22T20:39:59.551Z,1.8
2022-12-22T20:46:19.589Z,1.8
2022-12-22T20:52:42.774Z,1.3
2022-12-22T20:59:02.534Z,1.3
2022-12-22T21:05:25.569Z,2.3
2022-12-22T21:11:45.608Z,2.3
2022-12-22T21:18:08.505Z,1.4
2022-12-22T21:24:28.555Z,1.4
2022-12-22T21:30:51.604Z,1.2
2022-12-22T21:37:11.541Z,1.2
2022-12-22T21:43:34.545Z,3
2022-12-22T21:49:54.536Z,3
2022-12-22T21:56:17.517Z,2.4
2022-12-22T22:02:37.644Z,2.4
2022-12-22T22:09:00.508Z,2.4
2022-12-22T22:15:20.537Z,2.4
2022-12-22T22:21:43.496Z,1.8
2022-12-22T22:28:03.535Z,1.8
2022-12-22T22:34:26.612Z,1.5
2022-12-22T22:40:46.522Z,1.5
2022-12-22T22:47:09.584Z,2.8
2022-12-22T22:53:29.524Z,2.8
2022-12-22T22:59:52.568Z,3.8
2022-12-22T23:22:49.554Z,8.4
2022-12-22T23:29:09.477Z,8.4
